Time;durP1;ratioP1;P1;durP2;ratioP2;P2;SDS_P1;SDS_P2;PMS_P1;PMS_P2;Temp;Humidity;BMP_temperature;BMP_pressure;BME280_temperature;BME280_humidity;BME280_pressure;Samples;Min_cycle;Max_cycle;Signal;HPM_P1;HPM_P2
2023/05/10 00:00:14;;;;;;;16.27;14.45;;;;;;;12.20;46.23;100295.91;4920782;28;101580;-78
2023/05/10 00:02:40;;;;;;;16.52;15.18;;;;;;;12.33;45.60;100288.38;4930402;28;98124;-78
2023/05/10 00:05:06;;;;;;;15.98;14.45;;;;;;;12.23;46.05;100274.75;4937792;28;96812;-78
2023/05/10 00:07:32;;;;;;;15.43;14.15;;;;;;;12.18;46.71;100284.59;4956397;28;97510;-78
2023/05/10 00:09:57;;;;;;;17.80;15.95;;;;;;;12.13;46.81;100287.44;4927674;28;101755;-79
2023/05/10 00:12:23;;;;;;;15.90;14.60;;;;;;;12.27;46.28;100278.94;4924733;28;101027;-78
2023/05/10 00:14:48;;;;;;;15.90;14.52;;;;;;;12.17;46.57;100267.97;4943917;28;97375;-78
2023/05/10 00:17:14;;;;;;;16.20;14.85;;;;;;;12.31;46.09;100266.53;4940151;28;97326;-78
2023/05/10 00:19:40;;;;;;;18.85;15.95;;;;;;;12.13;46.85;100278.66;4922799;28;97518;-78
2023/05/10 00:22:05;;;;;;;16.50;15.10;;;;;;;11.98;46.64;100246.81;4913751;28;101349;-79
2023/05/10 00:24:31;;;;;;;16.23;14.65;;;;;;;12.10;46.55;100274.41;4912654;28;96808;-79
2023/05/10 00:26:56;;;;;;;16.25;14.98;;;;;;;12.04;46.89;100264.09;4916442;28;96907;-78
2023/05/10 00:29:22;;;;;;;18.13;16.50;;;;;;;12.05;46.90;100273.72;4899149;28;101260;-79
2023/05/10 00:31:47;;;;;;;15.88;14.38;;;;;;;12.07;47.13;100279.78;4906477;28;101251;-78
2023/05/10 00:34:13;;;;;;;17.08;15.43;;;;;;;12.08;46.80;100265.72;4911722;28;97312;-77
2023/05/10 00:36:38;;;;;;;16.98;15.35;;;;;;;12.05;47.13;100272.88;4912512;28;97438;-78
2023/05/10 00:39:05;;;;;;;17.13;15.63;;;;;;;11.99;47.22;100269.56;4910761;28;101023;-78
2023/05/10 00:41:34;;;;;;;16.15;14.57;;;;;;;11.88;47.43;100263.03;4942635;28;101524;-79
2023/05/10 00:44:01;;;;;;;15.82;14.50;;;;;;;11.90;47.13;100267.31;4913013;28;96797;-78
2023/05/10 00:46:28;;;;;;;16.35;14.65;;;;;;;11.88;47.39;100270.91;4914584;28;96967;-78
2023/05/10 00:48:54;;;;;;;17.30;15.57;;;;;;;11.77;47.91;100260.78;4914564;28;101957;-78
2023/05/10 00:51:19;;;;;;;17.42;15.93;;;;;;;11.73;48.21;100267.09;4918788;28;97898;-78
2023/05/10 00:53:45;;;;;;;16.75;15.05;;;;;;;11.57;49.00;100265.06;4946739;28;97138;-78
2023/05/10 00:56:12;;;;;;;16.90;15.20;;;;;;;11.47;48.58;100245.31;4946081;28;97310;-78
2023/05/10 00:58:38;;;;;;;17.70;16.00;;;;;;;11.50;48.85;100258.34;4908249;28;99771;-77
2023/05/10 01:01:04;;;;;;;16.35;14.95;;;;;;;11.47;48.57;100254.97;4906340;28;101183;-78
2023/05/10 01:03:30;;;;;;;18.45;15.57;;;;;;;11.61;48.43;100265.81;4921675;28;97238;-79
2023/05/10 01:05:56;;;;;;;17.58;15.70;;;;;;;11.36;48.39;100230.88;4923846;28;97137;-78
2023/05/10 01:08:21;;;;;;;17.63;16.00;;;;;;;11.40;48.85;100258.75;4911028;28;101127;-78
2023/05/10 01:10:49;;;;;;;17.30;15.60;;;;;;;11.46;48.69;100261.13;4917495;28;101110;-78
2023/05/10 01:13:26;;;;;;;16.73;15.02;;;;;;;11.47;48.67;100247.94;4902596;28;98410;-77
2023/05/10 01:15:52;;;;;;;18.65;16.70;;;;;;;11.27;49.35;100248.69;4895757;28;97268;-78
2023/05/10 01:18:20;;;;;;;17.95;15.95;;;;;;;11.18;49.54;100243.81;4934520;28;98257;-79
2023/05/10 01:20:49;;;;;;;17.48;15.98;;;;;;;11.27;49.71;100256.59;4905271;28;101131;-79
2023/05/10 01:23:25;;;;;;;18.25;16.35;;;;;;;11.20;49.89;100246.34;4900770;28;97140;-78
2023/05/10 01:26:02;;;;;;;17.98;15.18;;;;;;;11.32;49.36;100257.28;4916962;28;97488;-78
2023/05/10 01:28:59;;;;;;;17.77;15.60;;;;;;;11.25;49.33;100247.91;4933796;28;99799;-78
2023/05/10 01:31:27;;;;;;;17.95;16.45;;;;;;;11.25;49.72;100253.16;4932914;28;100599;-77
2023/05/10 01:34:02;;;;;;;17.35;15.52;;;;;;;11.02;50.55;100238.25;4933664;28;97255;-78
2023/05/10 01:36:45;;;;;;;16.75;15.35;;;;;;;11.03;50.42;100247.84;4901154;28;97138;-79
2023/05/10 01:39:23;;;;;;;17.35;15.35;;;;;;;11.07;50.15;100257.31;4934152;28;98590;-79
2023/05/10 01:41:56;;;;;;;18.42;15.27;;;;;;;10.94;50.87;100248.19;4933499;28;98113;-78
2023/05/10 01:44:29;;;;;;;16.88;14.57;;;;;;;10.95;50.78;100265.66;4933952;28;97375;-78
2023/05/10 01:47:05;;;;;;;21.95;15.00;;;;;;;10.99;50.76;100246.25;4913068;28;96773;-77
2023/05/10 01:49:34;;;;;;;17.50;15.90;;;;;;;11.06;50.69;100254.78;4894923;28;101726;-79
2023/05/10 01:52:07;;;;;;;20.85;15.10;;;;;;;10.95;50.07;100228.91;4897136;28;101082;-78
2023/05/10 01:54:33;;;;;;;18.60;16.77;;;;;;;10.98;50.46;100254.19;4901774;28;97042;-79
2023/05/10 01:57:05;;;;;;;17.98;16.27;;;;;;;10.84;50.87;100245.03;4900252;28;97658;-78
2023/05/10 01:59:40;;;;;;;18.73;16.45;;;;;;;10.69;50.77;100211.47;4901249;28;101277;-78
2023/05/10 02:02:07;;;;;;;19.23;17.52;;;;;;;10.92;50.93;100242.13;4917711;28;101035;-79
2023/05/10 02:04:35;;;;;;;17.17;15.45;;;;;;;10.98;50.44;100241.91;4914327;28;97236;-79
2023/05/10 02:07:00;;;;;;;17.25;15.65;;;;;;;10.85;50.88;100235.41;4932826;28;96901;-77
2023/05/10 02:09:27;;;;;;;18.05;16.23;;;;;;;10.89;50.51;100234.38;4933571;28;101100;-78
2023/05/10 02:11:54;;;;;;;17.27;15.65;;;;;;;10.71;51.21;100216.69;4920856;28;98345;-77
2023/05/10 02:14:20;;;;;;;15.88;14.48;;;;;;;10.93;50.64;100241.22;4915328;28;97453;-78
2023/05/10 02:16:46;;;;;;;18.98;17.27;;;;;;;10.70;50.94;100207.91;4914424;28;97011;-77
2023/05/10 02:19:12;;;;;;;17.23;15.50;;;;;;;11.05;50.34;100230.28;4917544;28;97702;-78
2023/05/10 02:21:39;;;;;;;16.35;14.75;;;;;;;10.99;50.80;100240.13;4928113;28;101872;-77
2023/05/10 02:24:05;;;;;;;18.23;16.52;;;;;;;10.67;51.02;100212.44;4914877;28;96810;-77
2023/05/10 02:26:32;;;;;;;20.00;18.20;;;;;;;10.84;51.06;100229.28;4929099;28;97019;-77
2023/05/10 02:28:58;;;;;;;18.08;16.25;;;;;;;10.70;51.43;100225.44;4932394;28;98239;-79
2023/05/10 02:31:24;;;;;;;17.40;15.90;;;;;;;10.67;51.38;100229.03;4949405;28;98438;-78
2023/05/10 02:33:50;;;;;;;16.60;15.20;;;;;;;10.73;51.62;100225.34;4948620;28;97136;-77
2023/05/10 02:36:17;;;;;;;17.13;15.38;;;;;;;10.63;51.43;100238.78;4925523;28;97126;-77
2023/05/10 02:38:44;;;;;;;18.38;16.65;;;;;;;10.57;52.19;100236.38;4928965;28;98469;-78
2023/05/10 02:41:10;;;;;;;23.15;17.33;;;;;;;10.53;51.68;100226.91;4937828;28;101461;-77
2023/05/10 02:43:37;;;;;;;19.58;16.55;;;;;;;10.69;51.12;100227.22;4949734;28;97306;-78
2023/05/10 02:46:03;;;;;;;18.00;16.40;;;;;;;10.81;50.96;100226.75;4903418;28;96932;-78
2023/05/10 02:48:28;;;;;;;19.23;17.30;;;;;;;10.56;51.82;100224.19;4922047;28;101222;-79
2023/05/10 02:50:56;;;;;;;17.52;15.73;;;;;;;10.73;51.39;100223.56;4938758;28;98373;-77
2023/05/10 02:53:31;;;;;;;17.55;15.85;;;;;;;10.74;51.08;100227.91;4916644;28;98252;-77
2023/05/10 02:55:59;;;;;;;18.85;17.08;;;;;;;10.53;52.44;100231.28;4932724;28;97225;-78
2023/05/10 02:58:25;;;;;;;20.33;16.83;;;;;;;10.75;51.18;100234.03;4916534;28;101635;-78
2023/05/10 03:00:50;;;;;;;18.50;16.67;;;;;;;10.47;51.78;100206.16;4927988;28;97994;-77
2023/05/10 03:03:16;;;;;;;18.52;16.60;;;;;;;10.67;51.64;100231.66;4911987;28;97505;-78
2023/05/10 03:05:41;;;;;;;20.15;16.52;;;;;;;10.47;52.15;100231.50;4928948;28;97164;-76
2023/05/10 03:08:07;;;;;;;17.75;16.15;;;;;;;10.59;51.75;100239.81;4896728;28;100861;-78
2023/05/10 03:10:40;;;;;;;19.25;17.27;;;;;;;10.45;51.95;100238.59;4894698;28;101795;-78
2023/05/10 03:13:05;;;;;;;;;;;;;;;10.42;52.43;100235.16;4906461;28;96885;-77
2023/05/10 03:15:58;;;;;;;18.70;16.80;;;;;;;10.42;52.12;100221.19;4912572;28;97069;-77
2023/05/10 03:18:29;;;;;;;19.05;17.13;;;;;;;10.26;52.18;100209.47;4893177;28;101528;-78
2023/05/10 03:20:58;;;;;;;18.30;16.75;;;;;;;10.36;52.22;100240.63;4912543;28;97962;-77
2023/05/10 03:23:27;;;;;;;18.55;16.50;;;;;;;10.40;52.70;100234.34;4893576;28;96773;-78
2023/05/10 03:25:53;;;;;;;19.55;17.65;;;;;;;10.31;52.43;100226.78;4895744;28;96949;-78
2023/05/10 03:28:20;;;;;;;18.88;17.35;;;;;;;10.46;51.55;100214.06;4895744;28;101133;-78
2023/05/10 03:30:47;;;;;;;18.88;17.38;;;;;;;10.53;52.45;100240.03;4895054;28;100916;-78
2023/05/10 03:33:13;;;;;;;18.75;17.05;;;;;;;10.34;52.69;100213.56;4880652;28;97445;-78
2023/05/10 03:35:41;;;;;;;20.10;18.15;;;;;;;10.55;51.91;100237.34;4890493;28;97220;-77
2023/05/10 03:38:07;;;;;;;19.23;17.63;;;;;;;10.49;52.13;100234.94;4912544;28;98315;-77
2023/05/10 03:40:33;;;;;;;18.30;16.60;;;;;;;10.44;52.04;100232.47;4896230;28;101111;-77
2023/05/10 03:42:59;;;;;;;20.25;16.83;;;;;;;10.46;52.41;100224.56;4890118;28;98164;-79
2023/05/10 03:45:25;;;;;;;19.90;15.68;;;;;;;10.41;52.63;100222.06;4887286;28;96919;-78
2023/05/10 03:47:51;;;;;;;17.35;15.75;;;;;;;10.46;52.24;100214.06;4895290;28;101215;-77
2023/05/10 03:50:17;;;;;;;18.60;16.90;;;;;;;10.55;52.20;100221.59;4890438;28;100981;-78
2023/05/10 03:52:43;;;;;;;19.42;17.55;;;;;;;10.45;52.58;100228.09;4888230;28;97078;-77
2023/05/10 03:55:08;;;;;;;19.10;17.17;;;;;;;10.67;51.46;100215.91;4883692;28;97130;-78
2023/05/10 03:57:34;;;;;;;18.92;16.88;;;;;;;10.54;51.73;100206.78;4879811;28;101156;-79
2023/05/10 04:00:00;;;;;;;19.38;17.55;;;;;;;10.83;51.35;100229.34;4895996;28;101233;-78
2023/05/10 04:02:25;;;;;;;18.73;16.92;;;;;;;10.71;51.74;100214.91;4892536;28;96832;-78
2023/05/10 04:04:51;;;;;;;19.15;17.45;;;;;;;10.77;51.63;100217.31;4910857;28;96951;-78
2023/05/10 04:07:17;;;;;;;19.25;17.00;;;;;;;10.81;51.46;100221.50;4898340;28;102204;-78
2023/05/10 04:09:43;;;;;;;18.25;16.45;;;;;;;10.80;51.84;100225.06;4924571;28;97373;-77
2023/05/10 04:12:09;;;;;;;18.92;16.95;;;;;;;11.14;50.79;100220.31;4882681;28;97012;-79
2023/05/10 04:14:34;;;;;;;19.15;17.50;;;;;;;11.18;50.40;100222.78;4901759;28;96887;-78
2023/05/10 04:17:00;;;;;;;19.10;17.23;;;;;;;11.17;50.75;100226.34;4891593;28;101000;-79
2023/05/10 04:19:29;;;;;;;19.60;17.70;;;;;;;11.44;50.27;100227.03;4926768;28;98243;-77
2023/05/10 04:21:55;;;;;;;23.48;16.58;;;;;;;11.62;49.69;100214.94;4881821;28;96931;-78
2023/05/10 04:24:21;;;;;;;20.10;18.05;;;;;;;11.64;49.62;100226.25;4916163;28;96945;-77
2023/05/10 04:26:46;;;;;;;22.85;18.17;;;;;;;11.62;49.87;100219.34;4879138;28;100950;-78
2023/05/10 04:29:12;;;;;;;19.67;17.95;;;;;;;11.81;49.54;100227.31;4880902;28;100365;-79
2023/05/10 04:31:37;;;;;;;19.48;17.15;;;;;;;12.11;48.89;100220.00;4913528;28;97393;-78
2023/05/10 04:34:03;;;;;;;21.15;18.90;;;;;;;12.20;48.22;100196.78;4894947;28;97464;-78
2023/05/10 04:36:28;;;;;;;21.50;17.83;;;;;;;12.25;48.15;100217.66;4907693;28;97549;-78
2023/05/10 04:38:54;;;;;;;19.70;17.85;;;;;;;12.27;48.08;100192.09;4907551;28;100923;-78
2023/05/10 04:41:20;;;;;;;19.58;17.58;;;;;;;12.45;47.60;100222.06;4889723;28;97198;-78
2023/05/10 04:43:46;;;;;;;20.20;18.27;;;;;;;12.41;47.87;100197.63;4908590;28;97958;-77
2023/05/10 04:46:11;;;;;;;21.25;18.42;;;;;;;12.81;47.34;100213.44;4895942;28;100828;-78
2023/05/10 04:48:37;;;;;;;18.90;17.27;;;;;;;12.71;46.68;100186.66;4884121;28;101204;-78
2023/05/10 04:51:03;;;;;;;19.73;17.92;;;;;;;12.87;47.07;100208.75;4883796;28;97503;-78
2023/05/10 04:53:29;;;;;;;20.20;18.27;;;;;;;13.03;46.66;100219.47;4893133;28;96890;-79
2023/05/10 04:55:55;;;;;;;20.10;18.02;;;;;;;13.07;47.69;100220.16;4890919;28;101430;-79
2023/05/10 04:58:20;;;;;;;19.55;17.75;;;;;;;13.00;46.92;100210.81;4911643;28;97540;-79
2023/05/10 05:00:46;;;;;;;20.00;16.58;;;;;;;13.11;46.35;100216.47;4879797;28;97539;-77
2023/05/10 05:03:11;;;;;;;18.88;16.83;;;;;;;13.08;48.09;100216.59;4911873;28;97196;-80
2023/05/10 05:05:37;;;;;;;17.98;16.27;;;;;;;13.39;46.50;100215.22;4896278;28;101125;-78
2023/05/10 05:08:03;;;;;;;20.98;16.52;;;;;;;13.73;45.66;100219.72;4884101;28;101409;-79
2023/05/10 05:10:29;;;;;;;19.88;17.65;;;;;;;13.54;45.51;100202.13;4922279;28;98319;-79
2023/05/10 05:12:55;;;;;;;19.38;17.42;;;;;;;13.73;45.29;100199.47;4914645;28;97475;-78
2023/05/10 05:15:20;;;;;;;20.02;16.92;;;;;;;14.07;45.17;100218.91;4925566;28;97947;-77
2023/05/10 05:17:46;;;;;;;18.70;16.27;;;;;;;14.32;44.60;100212.41;4908273;28;97324;-78
2023/05/10 05:20:12;;;;;;;18.63;17.02;;;;;;;14.40;43.96;100212.88;4912695;28;97051;-78
2023/05/10 05:22:38;;;;;;;19.23;16.38;;;;;;;15.02;43.45;100205.22;4908677;28;96851;-79
2023/05/10 05:25:05;;;;;;;17.55;16.08;;;;;;;15.52;42.23;100220.94;4891829;28;101193;-78
2023/05/10 05:27:31;;;;;;;18.25;16.52;;;;;;;16.84;40.25;100205.28;4918873;28;101179;-78
2023/05/10 05:29:57;;;;;;;18.85;16.67;;;;;;;18.18;37.76;100194.88;4924073;28;96959;-79
2023/05/10 05:32:23;;;;;;;19.08;17.38;;;;;;;19.30;35.66;100203.03;4917990;28;97098;-77
2023/05/10 05:34:49;;;;;;;19.52;17.65;;;;;;;21.43;32.98;100189.41;4910625;28;97568;-76
2023/05/10 05:37:15;;;;;;;18.52;17.02;;;;;;;24.16;28.93;100192.44;4902448;28;97885;-77
2023/05/10 05:39:42;;;;;;;18.23;16.65;;;;;;;28.07;24.88;100180.78;4924907;28;97153;-77
2023/05/10 05:42:08;;;;;;;19.10;17.50;;;;;;;30.31;22.18;100183.06;4920610;28;97197;-78
2023/05/10 05:44:34;;;;;;;18.85;17.35;;;;;;;32.76;19.91;100167.88;4926615;28;98064;-79
2023/05/10 05:46:59;;;;;;;19.15;17.50;;;;;;;34.12;18.70;100175.22;4912598;28;101223;-77
2023/05/10 05:49:25;;;;;;;18.23;16.58;;;;;;;32.24;19.50;100167.28;4944273;28;97132;-78
2023/05/10 05:51:50;;;;;;;17.67;16.15;;;;;;;33.49;18.96;100170.06;4909966;28;96939;-77
2023/05/10 05:54:16;;;;;;;18.48;16.88;;;;;;;35.56;17.24;100152.41;4929034;28;100044;-78
2023/05/10 05:56:42;;;;;;;17.67;16.40;;;;;;;35.22;17.13;100167.25;4929175;28;97420;-78
2023/05/10 05:59:07;;;;;;;18.27;16.77;;;;;;;36.84;16.32;100154.63;4916535;28;97235;-79
2023/05/10 06:01:33;;;;;;;17.85;15.90;;;;;;;36.37;16.10;100158.91;4931201;28;97722;-79
2023/05/10 06:03:58;;;;;;;17.75;16.23;;;;;;;38.11;15.70;100158.34;4913354;28;101344;-79
2023/05/10 06:06:24;;;;;;;18.15;16.33;;;;;;;38.28;15.35;100153.84;4932476;28;97454;-78
2023/05/10 06:08:50;;;;;;;17.90;16.38;;;;;;;37.36;15.46;100154.22;4933352;28;96730;-78
2023/05/10 06:11:15;;;;;;;17.77;16.25;;;;;;;36.71;15.86;100155.63;4916422;28;98248;-78
2023/05/10 06:13:42;;;;;;;18.35;16.63;;;;;;;38.19;15.44;100155.25;4933317;28;97417;-79
2023/05/10 06:16:07;;;;;;;18.63;17.08;;;;;;;38.86;14.76;100155.72;4949291;28;97410;-79
2023/05/10 06:18:33;;;;;;;17.35;15.98;;;;;;;40.06;14.27;100142.06;4932871;28;96746;-79
2023/05/10 06:20:58;;;;;;;17.60;16.30;;;;;;;40.22;13.97;100152.22;4910695;28;97182;-79
2023/05/10 06:23:25;;;;;;;18.30;16.98;;;;;;;41.90;12.76;100151.78;4923805;28;97982;-81
2023/05/10 06:25:51;;;;;;;17.42;16.15;;;;;;;40.31;13.54;100151.78;4927702;28;97331;-80
2023/05/10 06:28:16;;;;;;;17.95;16.42;;;;;;;42.49;12.86;100152.47;4950071;28;97246;-80
2023/05/10 06:30:42;;;;;;;19.20;17.55;;;;;;;41.36;12.99;100149.84;4933174;28;97871;-79
2023/05/10 06:33:08;;;;;;;19.05;17.52;;;;;;;43.52;12.44;100156.47;4931932;28;97514;-79
2023/05/10 06:35:33;;;;;;;19.50;18.00;;;;;;;43.97;11.71;100142.97;4933494;28;97104;-81
2023/05/10 06:37:59;;;;;;;18.50;17.13;;;;;;;42.61;12.83;100121.91;4913917;28;97167;-82
2023/05/10 06:40:24;;;;;;;18.02;16.45;;;;;;;45.12;10.79;100138.47;4900633;28;97553;-80
2023/05/10 06:42:51;;;;;;;17.42;16.15;;;;;;;43.29;11.64;100130.19;4906456;28;101651;-79
2023/05/10 06:45:17;;;;;;;16.58;15.40;;;;;;;42.67;12.10;100158.63;4931519;28;101462;-80
2023/05/10 06:47:42;;;;;;;17.17;15.95;;;;;;;43.42;12.09;100128.00;4914592;28;97178;-80
2023/05/10 06:50:08;;;;;;;18.27;16.60;;;;;;;45.64;11.08;100139.81;4916110;28;97206;-80
2023/05/10 06:52:34;;;;;;;17.40;16.08;;;;;;;44.09;11.80;100132.44;4909778;28;100885;-79
2023/05/10 06:55:00;;;;;;;17.13;15.48;;;;;;;45.63;11.08;100138.16;4902868;28;101233;-80
2023/05/10 06:57:26;;;;;;;16.63;15.45;;;;;;;46.80;10.55;100124.22;4915498;28;97764;-80
2023/05/10 06:59:52;;;;;;;16.63;15.25;;;;;;;47.69;9.97;100140.16;4954824;28;97335;-80
2023/05/10 07:02:18;;;;;;;17.05;15.68;;;;;;;45.97;10.37;100129.03;4913668;28;101629;-82
2023/05/10 07:04:43;;;;;;;16.38;15.07;;;;;;;45.52;10.29;100137.41;4932201;28;97304;-81
2023/05/10 07:07:09;;;;;;;19.95;18.40;;;;;;;46.83;10.06;100135.56;4920535;28;96939;-81
2023/05/10 07:09:34;;;;;;;15.68;14.60;;;;;;;48.03;9.78;100131.50;4876555;28;97256;-82
2023/05/10 07:12:01;;;;;;;16.88;15.48;;;;;;;46.97;10.00;100119.00;4896779;28;97482;-82
2023/05/10 07:14:27;;;;;;;15.75;14.45;;;;;;;46.37;10.35;100132.50;4878993;28;97986;-83
2023/05/10 07:16:53;;;;;;;16.85;15.63;;;;;;;46.83;10.33;100126.41;4873748;28;97261;-81
2023/05/10 07:19:19;;;;;;;15.98;14.77;;;;;;;48.15;9.61;100117.97;4890677;28;97325;-83
2023/05/10 07:21:44;;;;;;;24.15;14.93;;;;;;;48.52;9.65;100118.91;4888834;28;101703;-82
2023/05/10 07:24:10;;;;;;;16.92;15.70;;;;;;;46.34;10.10;100117.25;4901715;28;101870;-81
2023/05/10 07:26:36;;;;;;;16.33;15.23;;;;;;;48.48;9.41;100109.50;4891257;28;97105;-82
2023/05/10 07:29:02;;;;;;;17.00;15.70;;;;;;;47.12;9.54;100117.97;4882503;28;97278;-82
2023/05/10 07:31:27;;;;;;;17.25;15.85;;;;;;;49.81;9.27;100103.66;4892734;28;98654;-84
2023/05/10 07:33:53;;;;;;;17.20;15.90;;;;;;;51.22;8.60;100103.75;4906319;28;100020;-84
2023/05/10 07:36:18;;;;;;;18.23;16.63;;;;;;;52.73;7.83;100095.06;4915198;28;98117;-85
2023/05/10 07:38:44;;;;;;;16.65;15.65;;;;;;;51.58;8.65;100104.25;4889979;28;97529;-84
2023/05/10 07:41:11;;;;;;;17.65;16.15;;;;;;;47.23;9.92;100100.03;4884010;28;101662;-83
2023/05/10 07:43:37;;;;;;;16.60;15.37;;;;;;;51.14;8.63;100106.22;4884562;28;98163;-84
2023/05/10 07:46:03;;;;;;;17.58;16.08;;;;;;;49.48;9.11;100091.94;4867860;28;97361;-83
2023/05/10 07:48:28;;;;;;;16.95;15.85;;;;;;;49.32;9.19;100099.88;4887725;28;97241;-80
2023/05/10 07:50:54;;;;;;;16.83;15.75;;;;;;;52.11;8.32;100098.53;4888403;28;101318;-80
2023/05/10 07:53:19;;;;;;;18.30;16.73;;;;;;;53.07;7.65;100088.38;4898601;28;101890;-80
2023/05/10 07:55:50;;;;;;;18.50;16.90;;;;;;;50.58;8.61;100085.59;4875225;28;97252;-80
2023/05/10 07:58:16;;;;;;;17.25;16.23;;;;;;;50.54;8.60;100103.34;4904881;28;97346;-81
2023/05/10 08:00:41;;;;;;;18.13;16.67;;;;;;;49.81;9.21;100084.97;4908425;28;98236;-81
2023/05/10 08:03:07;;;;;;;17.70;16.42;;;;;;;49.47;9.46;100095.88;4892239;28;101144;-80
2023/05/10 08:05:32;;;;;;;17.05;16.00;;;;;;;49.79;9.41;100084.44;4908783;28;97620;-80
2023/05/10 08:07:59;;;;;;;17.98;16.77;;;;;;;51.68;8.71;100077.09;4917227;28;97441;-81
2023/05/10 08:10:25;;;;;;;16.63;15.57;;;;;;;50.43;8.84;100088.84;4894853;28;97992;-80
2023/05/10 08:12:51;;;;;;;17.65;16.42;;;;;;;50.34;9.08;100085.22;4910690;28;101418;-80
2023/05/10 08:15:16;;;;;;;17.00;15.98;;;;;;;50.60;9.29;100086.09;4919271;28;97214;-80
2023/05/10 08:17:42;;;;;;;18.00;16.42;;;;;;;49.82;9.21;100078.22;4900690;28;97286;-80
2023/05/10 08:20:08;;;;;;;16.85;15.55;;;;;;;49.07;9.23;100085.38;4890177;28;101405;-80
2023/05/10 08:22:34;;;;;;;16.38;15.07;;;;;;;50.06;9.40;100072.28;4915784;28;97819;-81
2023/05/10 08:24:59;;;;;;;16.48;15.32;;;;;;;49.41;9.29;100072.91;4929543;28;97343;-81
2023/05/10 08:27:25;;;;;;;17.17;16.10;;;;;;;50.04;9.25;100063.44;4915143;28;97215;-81
2023/05/10 08:29:51;;;;;;;16.00;14.90;;;;;;;50.22;9.00;100077.44;4930571;28;97391;-80
2023/05/10 08:32:17;;;;;;;16.20;14.90;;;;;;;50.82;9.46;100062.81;4919294;28;98359;-81
2023/05/10 08:34:42;;;;;;;17.15;15.52;;;;;;;49.82;9.45;100063.47;4896238;28;97197;-78
2023/05/10 08:37:08;;;;;;;16.48;15.02;;;;;;;47.56;10.69;100063.94;4956716;28;97922;-79
2023/05/10 08:39:37;;;;;;;15.55;14.65;;;;;;;47.63;10.51;100067.16;4937474;28;98497;-80
2023/05/10 08:42:04;;;;;;;15.30;14.23;;;;;;;44.56;11.65;100073.13;4946512;28;98247;-80
2023/05/10 08:44:35;;;;;;;15.53;14.23;;;;;;;46.17;11.52;100070.56;4937352;28;98007;-79
2023/05/10 08:47:05;;;;;;;16.30;14.77;;;;;;;44.88;12.13;100052.50;4925189;28;97947;-80
2023/05/10 08:49:32;;;;;;;15.45;14.20;;;;;;;42.56;13.15;100072.25;4880996;28;101251;-79
2023/05/10 08:52:00;;;;;;;13.73;12.82;;;;;;;38.22;15.44;100078.06;4922310;28;97226;-78
2023/05/10 08:54:25;;;;;;;14.82;13.82;;;;;;;36.69;16.83;100074.91;4918854;28;97423;-79
2023/05/10 08:56:53;;;;;;;15.25;14.18;;;;;;;34.72;19.03;100085.22;4942169;28;97315;-79
2023/05/10 08:59:18;;;;;;;14.02;13.23;;;;;;;32.33;20.34;100086.50;4920768;28;101662;-79
2023/05/10 09:01:45;;;;;;;15.50;14.40;;;;;;;31.43;21.51;100088.06;4928851;28;97420;-79
2023/05/10 09:04:11;;;;;;;15.35;14.23;;;;;;;30.74;21.92;100084.91;4927660;28;97234;-79
2023/05/10 09:06:37;;;;;;;15.88;14.77;;;;;;;29.73;23.45;100079.03;4922495;28;97682;-79
2023/05/10 09:09:03;;;;;;;16.25;15.10;;;;;;;29.27;23.90;100081.75;4911368;28;101405;-78
2023/05/10 09:11:29;;;;;;;16.27;15.25;;;;;;;27.89;25.73;100043.41;4915439;28;101144;-78
2023/05/10 09:13:55;;;;;;;16.40;15.20;;;;;;;27.45;26.56;100094.97;4909884;28;97182;-78
2023/05/10 09:16:22;;;;;;;16.75;15.35;;;;;;;27.22;26.55;100087.50;4905515;28;97294;-84
2023/05/10 09:18:49;;;;;;;16.55;15.45;;;;;;;26.52;27.46;100093.13;4907442;28;98223;-78
2023/05/10 09:21:14;;;;;;;16.27;15.27;;;;;;;25.32;28.69;100090.19;4922427;28;98153;-78
2023/05/10 09:23:46;;;;;;;18.17;15.35;;;;;;;24.78;29.61;100096.28;4904355;28;97660;-82
2023/05/10 09:26:12;;;;;;;16.73;15.63;;;;;;;24.21;29.67;100062.47;4910376;28;98806;-77
2023/05/10 09:28:58;;;;;;;16.85;15.75;;;;;;;24.51;29.92;100090.88;4926965;28;97600;-77
2023/05/10 09:31:27;;;;;;;16.40;15.30;;;;;;;24.07;30.41;100091.41;4906167;28;101362;-78
2023/05/10 09:33:53;;;;;;;15.38;14.48;;;;;;;23.60;30.98;100082.44;4937371;28;97234;-78
2023/05/10 09:36:18;;;;;;;16.27;15.27;;;;;;;22.86;31.87;100074.84;4892336;28;98142;-78
2023/05/10 09:38:47;;;;;;;16.60;15.13;;;;;;;22.98;32.14;100103.19;4929044;28;100887;-77
2023/05/10 09:41:21;;;;;;;14.80;13.63;;;;;;;22.77;32.58;100090.72;4924708;28;101833;-77
2023/05/10 09:43:47;;;;;;;16.30;14.73;;;;;;;22.97;32.33;100102.38;4909952;28;97227;-77
2023/05/10 09:46:12;;;;;;;15.00;13.90;;;;;;;22.54;33.24;100106.16;4903723;28;97391;-77
2023/05/10 09:48:46;;;;;;;15.20;14.13;;;;;;;22.83;32.81;100092.00;4909167;28;101568;-78
2023/05/10 09:51:32;;;;;;;14.45;13.45;;;;;;;23.00;32.42;100093.22;4893806;28;101002;-78
2023/05/10 09:54:12;;;;;;;14.65;13.52;;;;;;;23.31;32.51;100096.66;4887869;28;97234;-77
2023/05/10 09:56:40;;;;;;;14.90;13.53;;;;;;;22.76;32.84;100094.38;4910192;28;96911;-73
2023/05/10 09:59:06;;;;;;;15.00;14.10;;;;;;;22.58;33.02;100088.00;4912138;28;97746;-75
2023/05/10 10:01:36;;;;;;;12.80;11.80;;;;;;;22.47;32.25;100082.75;4934241;28;98259;-75
2023/05/10 10:04:06;;;;;;;15.52;14.10;;;;;;;22.36;33.01;100076.50;4908776;28;97430;-77
2023/05/10 10:06:38;;;;;;;14.27;13.07;;;;;;;22.47;32.73;100088.09;4911632;28;97225;-76
2023/05/10 10:09:07;;;;;;;14.75;13.45;;;;;;;22.26;32.89;100083.63;4911762;28;101200;-79
2023/05/10 10:11:37;;;;;;;14.63;13.35;;;;;;;22.01;33.18;100097.38;4914074;28;101366;-79
2023/05/10 10:14:03;;;;;;;15.02;13.80;;;;;;;21.91;33.59;100098.16;4920300;28;97276;-79
2023/05/10 10:16:32;;;;;;;14.65;13.48;;;;;;;21.88;33.09;100086.91;4920406;28;97421;-78
2023/05/10 10:18:58;;;;;;;14.85;13.85;;;;;;;21.70;33.86;100076.78;4908015;28;99957;-78
2023/05/10 10:21:24;;;;;;;15.05;13.82;;;;;;;21.99;33.96;100083.28;4910954;28;101125;-78
2023/05/10 10:23:49;;;;;;;15.82;14.20;;;;;;;21.89;34.06;100073.38;4910481;28;97409;-78
2023/05/10 10:26:17;;;;;;;14.05;13.25;;;;;;;21.76;34.31;100066.53;4915127;28;97267;-79
2023/05/10 10:29:14;;;;;;;15.40;14.05;;;;;;;21.77;34.94;100073.59;4895015;28;101305;-78
2023/05/10 10:31:45;;;;;;;14.82;13.60;;;;;;;21.77;34.78;100070.94;4926862;28;101555;-79
2023/05/10 10:34:21;;;;;;;13.90;13.00;;;;;;;21.77;34.57;100082.44;4911640;28;97414;-79
2023/05/10 10:36:47;;;;;;;14.30;13.40;;;;;;;21.78;34.48;100068.09;4908006;28;97277;-79
2023/05/10 10:39:14;;;;;;;15.77;14.43;;;;;;;21.66;34.01;100067.31;4909156;28;100882;-78
2023/05/10 10:41:49;;;;;;;14.82;13.70;;;;;;;21.27;34.64;100084.00;4910183;28;101137;-78
2023/05/10 10:44:24;;;;;;;14.02;13.00;;;;;;;21.65;34.28;100070.13;4911355;28;97289;-79
2023/05/10 10:47:08;;;;;;;14.98;13.98;;;;;;;21.51;34.53;100057.09;4926729;28;97383;-78
2023/05/10 10:49:40;;;;;;;14.63;13.27;;;;;;;21.60;34.96;100065.16;4925054;28;101491;-78
2023/05/10 10:52:23;;;;;;;14.60;13.60;;;;;;;21.35;34.46;100042.34;4927508;28;101553;-78
2023/05/10 10:55:06;;;;;;;13.40;12.55;;;;;;;21.21;35.24;100080.00;4906943;28;97379;-78
2023/05/10 10:57:33;;;;;;;13.93;13.02;;;;;;;21.24;35.62;100071.75;4906711;28;97448;-77
2023/05/10 11:00:21;;;;;;;13.77;12.75;;;;;;;21.38;35.71;100052.78;4907828;28;97599;-77
2023/05/10 11:02:55;;;;;;;14.07;13.02;;;;;;;21.16;35.05;100052.84;4922176;28;101458;-78
2023/05/10 11:05:27;;;;;;;16.27;13.68;;;;;;;21.15;34.45;100056.50;4926082;28;98029;-78
2023/05/10 11:07:57;;;;;;;14.35;12.88;;;;;;;21.27;35.35;100055.47;4938535;28;97300;-78
2023/05/10 11:10:24;;;;;;;15.15;13.15;;;;;;;20.98;35.84;100065.88;4910510;28;101495;-79